Cressey, California
Current Conditions -  °F | °C
As of 9:45 AM on Monday 24 Nov 2014 (Local Time) from KMER Reporting Station
Few Clouds Few Clouds  
Wind Chill: 46°   Ceiling: Unl
Heat Index: 46°   Visibility: 10mi
Dew Point: 46°   Wind: 0mph
Humidity: 100%   Direction: NA
Pressure: 30.42"   Gusts: NA
Location:  37.42°N, 120.67°W
Report Text: KMER 241745Z 00000KT 10SM FEW002 FEW006 08/08 A3042 RMK VIS SE 2SM FG
Loading
Personal Weather Stations






























Interactive Weather Map New forecast layout! Learn more

10-Day Weather Forecast

Advertisements
Track Severe Weather on mobile